Terminal Aerodrome Forecast
Issued by NWS Nashville, TN

Home | Current Version | Previous Version | Text Only | Print | Product List | Glossary On
Versions: 1 2 3 4 5 6 7 8 9 10 11 12 13 14 15 16 17
000
FTUS44 KOHX 270100 AAB
TAFCSV
TAF AMD
KCSV 270135Z 2702/2724 24007KT 6SM -SHRA OVC025
     FM270300 27004KT P6SM -RASN OVC025
     FM270600 29007KT 4SM -SN OVC010
     FM271200 31008KT P6SM OVC025
     FM271700 31010KT P6SM BKN025
     FM272000 31012KT P6SM SCT025=

USA.gov is the U.S. government's official web portal to all federal, state and local government web resources and services.